Alta, Wyoming
Current Conditions -  °F | °C
As of 5:56 AM on Saturday 25 Oct 2014 (Local Time) from KDIJ Reporting Station
Clear Clear  
Wind Chill:   Ceiling: Unl
Heat Index:   Visibility: 10mi
Dew Point: -4°   Wind: 10mph
Humidity: 52%   Direction: 180°S
Pressure: 30.13"   Gusts: NA
Location:  43.77°N, 110.98°W
Report Text: KDIJ 251156Z AUTO 18009KT 10SM CLR 06/M04 A3013 RMK AO2 56017 T00551038 10066 20005 SLP144
Loading
Personal Weather Stations






























Interactive Weather Map New forecast layout! Learn more

10-Day Weather Forecast

Advertisements
Track Severe Weather on mobile